sensor_id;sensor_type;location;lat;lon;timestamp;P1;durP1;ratioP1;P2;durP2;ratioP2
68449;SDS011;67758;39.572;2.652;2023-05-14T00:00:19;3.17;;;0.50;;
68449;SDS011;67758;39.572;2.652;2023-05-14T00:02:45;3.92;;;0.60;;
68449;SDS011;67758;39.572;2.652;2023-05-14T00:05:10;6.60;;;0.70;;
68449;SDS011;67758;39.572;2.652;2023-05-14T00:07:36;3.55;;;0.60;;
68449;SDS011;67758;39.572;2.652;2023-05-14T00:10:02;3.97;;;0.80;;
68449;SDS011;67758;39.572;2.652;2023-05-14T00:12:27;4.75;;;0.68;;
68449;SDS011;67758;39.572;2.652;2023-05-14T00:14:54;4.40;;;0.68;;
68449;SDS011;67758;39.572;2.652;2023-05-14T00:17:20;4.30;;;0.50;;
68449;SDS011;67758;39.572;2.652;2023-05-14T00:19:47;4.75;;;0.68;;
68449;SDS011;67758;39.572;2.652;2023-05-14T00:22:13;4.00;;;0.60;;
68449;SDS011;67758;39.572;2.652;2023-05-14T00:24:40;5.88;;;0.80;;
68449;SDS011;67758;39.572;2.652;2023-05-14T00:27:06;5.10;;;0.80;;
68449;SDS011;67758;39.572;2.652;2023-05-14T00:29:32;5.03;;;0.63;;
68449;SDS011;67758;39.572;2.652;2023-05-14T00:31:59;4.00;;;0.57;;
68449;SDS011;67758;39.572;2.652;2023-05-14T00:34:25;4.73;;;0.60;;
68449;SDS011;67758;39.572;2.652;2023-05-14T00:36:51;4.30;;;0.90;;
68449;SDS011;67758;39.572;2.652;2023-05-14T00:39:16;5.00;;;0.70;;
68449;SDS011;67758;39.572;2.652;2023-05-14T00:41:42;4.00;;;0.65;;
68449;SDS011;67758;39.572;2.652;2023-05-14T00:44:07;3.53;;;0.73;;
68449;SDS011;67758;39.572;2.652;2023-05-14T00:46:33;5.70;;;0.98;;
68449;SDS011;67758;39.572;2.652;2023-05-14T00:48:59;5.97;;;1.50;;
68449;SDS011;67758;39.572;2.652;2023-05-14T00:51:25;4.80;;;1.20;;
68449;SDS011;67758;39.572;2.652;2023-05-14T00:53:50;5.57;;;1.10;;
68449;SDS011;67758;39.572;2.652;2023-05-14T00:56:16;5.30;;;1.20;;
68449;SDS011;67758;39.572;2.652;2023-05-14T00:58:43;5.18;;;1.25;;
68449;SDS011;67758;39.572;2.652;2023-05-14T01:01:08;5.47;;;1.23;;
68449;SDS011;67758;39.572;2.652;2023-05-14T01:03:34;6.78;;;1.15;;
68449;SDS011;67758;39.572;2.652;2023-05-14T01:11:46;5.00;;;0.93;;
68449;SDS011;67758;39.572;2.652;2023-05-14T01:17:13;5.45;;;0.80;;
68449;SDS011;67758;39.572;2.652;2023-05-14T01:19:44;4.03;;;0.90;;
68449;SDS011;67758;39.572;2.652;2023-05-14T01:22:11;3.40;;;0.60;;
68449;SDS011;67758;39.572;2.652;2023-05-14T01:24:37;5.57;;;0.60;;
68449;SDS011;67758;39.572;2.652;2023-05-14T01:27:12;2.53;;;0.50;;
68449;SDS011;67758;39.572;2.652;2023-05-14T01:29:40;3.15;;;0.60;;
68449;SDS011;67758;39.572;2.652;2023-05-14T01:32:09;4.70;;;0.50;;
68449;SDS011;67758;39.572;2.652;2023-05-14T01:34:37;3.47;;;0.50;;
68449;SDS011;67758;39.572;2.652;2023-05-14T01:37:05;3.08;;;0.50;;
68449;SDS011;67758;39.572;2.652;2023-05-14T01:39:31;5.05;;;0.60;;
68449;SDS011;67758;39.572;2.652;2023-05-14T01:41:57;2.70;;;0.63;;
68449;SDS011;67758;39.572;2.652;2023-05-14T01:44:24;4.90;;;0.50;;
68449;SDS011;67758;39.572;2.652;2023-05-14T01:46:50;3.63;;;0.40;;
68449;SDS011;67758;39.572;2.652;2023-05-14T01:49:16;3.30;;;0.40;;
68449;SDS011;67758;39.572;2.652;2023-05-14T01:51:42;5.05;;;0.40;;
68449;SDS011;67758;39.572;2.652;2023-05-14T01:54:08;3.42;;;0.40;;
68449;SDS011;67758;39.572;2.652;2023-05-14T01:56:33;2.27;;;0.47;;
68449;SDS011;67758;39.572;2.652;2023-05-14T01:58:59;2.97;;;0.30;;
68449;SDS011;67758;39.572;2.652;2023-05-14T02:01:25;2.85;;;0.55;;
68449;SDS011;67758;39.572;2.652;2023-05-14T02:03:50;2.97;;;0.20;;
68449;SDS011;67758;39.572;2.652;2023-05-14T02:06:16;2.63;;;0.40;;
68449;SDS011;67758;39.572;2.652;2023-05-14T02:08:41;1.83;;;0.30;;
68449;SDS011;67758;39.572;2.652;2023-05-14T02:11:07;2.17;;;0.30;;
68449;SDS011;67758;39.572;2.652;2023-05-14T02:13:35;2.63;;;0.40;;
68449;SDS011;67758;39.572;2.652;2023-05-14T02:16:00;2.95;;;0.40;;
68449;SDS011;67758;39.572;2.652;2023-05-14T02:18:26;6.57;;;0.30;;
68449;SDS011;67758;39.572;2.652;2023-05-14T02:20:51;2.77;;;0.30;;
68449;SDS011;67758;39.572;2.652;2023-05-14T02:23:17;1.77;;;0.28;;
68449;SDS011;67758;39.572;2.652;2023-05-14T02:25:43;2.80;;;0.40;;
68449;SDS011;67758;39.572;2.652;2023-05-14T02:28:09;3.53;;;0.45;;
68449;SDS011;67758;39.572;2.652;2023-05-14T02:30:35;2.40;;;0.40;;
68449;SDS011;67758;39.572;2.652;2023-05-14T02:33:01;4.65;;;0.50;;
68449;SDS011;67758;39.572;2.652;2023-05-14T02:35:26;3.33;;;0.50;;
68449;SDS011;67758;39.572;2.652;2023-05-14T02:37:52;1.77;;;0.30;;
68449;SDS011;67758;39.572;2.652;2023-05-14T02:40:18;2.97;;;0.40;;
68449;SDS011;67758;39.572;2.652;2023-05-14T02:42:43;2.80;;;0.35;;
68449;SDS011;67758;39.572;2.652;2023-05-14T02:45:09;2.67;;;0.40;;
68449;SDS011;67758;39.572;2.652;2023-05-14T02:47:35;2.40;;;0.30;;
68449;SDS011;67758;39.572;2.652;2023-05-14T02:50:00;4.07;;;0.53;;
68449;SDS011;67758;39.572;2.652;2023-05-14T02:52:26;2.63;;;0.47;;
68449;SDS011;67758;39.572;2.652;2023-05-14T02:54:52;2.20;;;0.40;;
68449;SDS011;67758;39.572;2.652;2023-05-14T02:57:17;3.27;;;0.40;;
68449;SDS011;67758;39.572;2.652;2023-05-14T02:59:43;2.92;;;0.40;;
68449;SDS011;67758;39.572;2.652;2023-05-14T03:02:08;3.37;;;0.40;;
68449;SDS011;67758;39.572;2.652;2023-05-14T03:04:34;3.00;;;0.30;;
68449;SDS011;67758;39.572;2.652;2023-05-14T03:07:00;3.30;;;0.40;;
68449;SDS011;67758;39.572;2.652;2023-05-14T03:09:25;2.83;;;0.40;;
68449;SDS011;67758;39.572;2.652;2023-05-14T03:11:51;4.00;;;0.50;;
68449;SDS011;67758;39.572;2.652;2023-05-14T03:14:16;2.63;;;0.33;;
68449;SDS011;67758;39.572;2.652;2023-05-14T03:16:42;3.13;;;0.40;;
68449;SDS011;67758;39.572;2.652;2023-05-14T03:19:08;2.67;;;0.37;;
68449;SDS011;67758;39.572;2.652;2023-05-14T03:21:33;2.10;;;0.30;;
68449;SDS011;67758;39.572;2.652;2023-05-14T03:23:59;4.78;;;0.40;;
68449;SDS011;67758;39.572;2.652;2023-05-14T03:26:25;3.90;;;0.37;;
68449;SDS011;67758;39.572;2.652;2023-05-14T03:28:50;3.88;;;1.23;;
68449;SDS011;67758;39.572;2.652;2023-05-14T03:31:16;3.27;;;0.40;;
68449;SDS011;67758;39.572;2.652;2023-05-14T03:33:42;3.30;;;0.40;;
68449;SDS011;67758;39.572;2.652;2023-05-14T03:36:07;2.63;;;0.30;;
68449;SDS011;67758;39.572;2.652;2023-05-14T03:38:33;3.13;;;0.40;;
68449;SDS011;67758;39.572;2.652;2023-05-14T03:40:59;3.93;;;0.40;;
68449;SDS011;67758;39.572;2.652;2023-05-14T03:43:24;2.08;;;0.30;;
68449;SDS011;67758;39.572;2.652;2023-05-14T03:45:50;2.57;;;0.40;;
68449;SDS011;67758;39.572;2.652;2023-05-14T03:48:19;3.28;;;0.40;;
68449;SDS011;67758;39.572;2.652;2023-05-14T03:50:44;2.90;;;0.50;;
68449;SDS011;67758;39.572;2.652;2023-05-14T03:53:11;2.93;;;0.40;;
68449;SDS011;67758;39.572;2.652;2023-05-14T03:55:36;2.45;;;0.40;;
68449;SDS011;67758;39.572;2.652;2023-05-14T03:58:02;3.37;;;0.50;;
68449;SDS011;67758;39.572;2.652;2023-05-14T04:00:31;3.78;;;0.38;;
68449;SDS011;67758;39.572;2.652;2023-05-14T04:02:57;2.60;;;0.43;;
68449;SDS011;67758;39.572;2.652;2023-05-14T04:05:22;3.13;;;0.50;;
68449;SDS011;67758;39.572;2.652;2023-05-14T04:07:48;4.30;;;0.63;;
68449;SDS011;67758;39.572;2.652;2023-05-14T04:10:14;6.00;;;0.50;;
68449;SDS011;67758;39.572;2.652;2023-05-14T04:12:39;2.55;;;0.45;;
68449;SDS011;67758;39.572;2.652;2023-05-14T04:15:05;5.10;;;0.50;;
68449;SDS011;67758;39.572;2.652;2023-05-14T04:17:32;2.38;;;0.38;;
68449;SDS011;67758;39.572;2.652;2023-05-14T04:19:57;2.83;;;0.40;;
68449;SDS011;67758;39.572;2.652;2023-05-14T04:22:23;2.35;;;0.40;;
68449;SDS011;67758;39.572;2.652;2023-05-14T04:24:48;2.07;;;0.30;;
68449;SDS011;67758;39.572;2.652;2023-05-14T04:27:23;2.97;;;0.40;;
68449;SDS011;67758;39.572;2.652;2023-05-14T04:29:49;4.33;;;0.50;;
68449;SDS011;67758;39.572;2.652;2023-05-14T04:32:15;4.40;;;0.80;;
68449;SDS011;67758;39.572;2.652;2023-05-14T04:34:44;4.00;;;0.88;;
68449;SDS011;67758;39.572;2.652;2023-05-14T04:37:11;5.07;;;1.10;;
68449;SDS011;67758;39.572;2.652;2023-05-14T04:39:37;4.63;;;0.80;;
68449;SDS011;67758;39.572;2.652;2023-05-14T04:42:06;4.38;;;0.82;;
68449;SDS011;67758;39.572;2.652;2023-05-14T04:44:33;4.03;;;0.60;;
68449;SDS011;67758;39.572;2.652;2023-05-14T04:46:59;4.88;;;0.80;;
68449;SDS011;67758;39.572;2.652;2023-05-14T04:49:26;4.18;;;0.80;;
68449;SDS011;67758;39.572;2.652;2023-05-14T04:51:53;7.03;;;1.00;;
68449;SDS011;67758;39.572;2.652;2023-05-14T04:54:19;5.95;;;1.00;;
68449;SDS011;67758;39.572;2.652;2023-05-14T04:56:44;4.33;;;0.70;;
68449;SDS011;67758;39.572;2.652;2023-05-14T04:59:11;4.30;;;0.90;;
68449;SDS011;67758;39.572;2.652;2023-05-14T05:01:37;5.77;;;0.90;;
68449;SDS011;67758;39.572;2.652;2023-05-14T05:04:03;4.00;;;0.67;;
68449;SDS011;67758;39.572;2.652;2023-05-14T05:06:28;3.77;;;0.80;;
68449;SDS011;67758;39.572;2.652;2023-05-14T05:08:55;7.10;;;0.90;;
68449;SDS011;67758;39.572;2.652;2023-05-14T05:11:21;3.47;;;0.75;;
68449;SDS011;67758;39.572;2.652;2023-05-14T05:13:46;3.80;;;0.80;;
68449;SDS011;67758;39.572;2.652;2023-05-14T05:16:12;3.83;;;0.60;;
68449;SDS011;67758;39.572;2.652;2023-05-14T05:18:38;4.13;;;0.68;;
68449;SDS011;67758;39.572;2.652;2023-05-14T05:21:04;5.18;;;0.80;;
68449;SDS011;67758;39.572;2.652;2023-05-14T05:23:29;6.40;;;1.43;;
68449;SDS011;67758;39.572;2.652;2023-05-14T05:25:55;5.40;;;1.05;;
68449;SDS011;67758;39.572;2.652;2023-05-14T05:28:21;3.03;;;0.60;;
68449;SDS011;67758;39.572;2.652;2023-05-14T05:30:46;4.60;;;0.80;;
68449;SDS011;67758;39.572;2.652;2023-05-14T05:33:12;4.85;;;0.75;;
68449;SDS011;67758;39.572;2.652;2023-05-14T05:35:38;3.43;;;0.60;;
68449;SDS011;67758;39.572;2.652;2023-05-14T05:38:03;4.03;;;0.60;;
68449;SDS011;67758;39.572;2.652;2023-05-14T05:40:29;5.23;;;0.60;;
68449;SDS011;67758;39.572;2.652;2023-05-14T05:42:54;3.97;;;0.70;;
68449;SDS011;67758;39.572;2.652;2023-05-14T05:45:20;3.23;;;0.57;;
68449;SDS011;67758;39.572;2.652;2023-05-14T05:47:46;4.47;;;0.55;;
68449;SDS011;67758;39.572;2.652;2023-05-14T05:50:11;4.97;;;0.80;;
68449;SDS011;67758;39.572;2.652;2023-05-14T05:52:37;3.93;;;0.70;;
68449;SDS011;67758;39.572;2.652;2023-05-14T05:55:03;4.17;;;0.90;;
68449;SDS011;67758;39.572;2.652;2023-05-14T05:57:29;6.30;;;0.90;;
68449;SDS011;67758;39.572;2.652;2023-05-14T05:59:54;4.97;;;0.70;;
68449;SDS011;67758;39.572;2.652;2023-05-14T06:02:20;5.68;;;0.93;;
68449;SDS011;67758;39.572;2.652;2023-05-14T06:04:46;4.50;;;1.00;;
68449;SDS011;67758;39.572;2.652;2023-05-14T06:07:12;6.40;;;1.10;;
68449;SDS011;67758;39.572;2.652;2023-05-14T06:09:38;5.95;;;1.10;;
68449;SDS011;67758;39.572;2.652;2023-05-14T06:12:04;3.43;;;0.80;;
68449;SDS011;67758;39.572;2.652;2023-05-14T06:14:29;4.65;;;0.95;;
68449;SDS011;67758;39.572;2.652;2023-05-14T06:16:55;4.57;;;0.73;;
68449;SDS011;67758;39.572;2.652;2023-05-14T06:19:21;5.90;;;1.15;;
68449;SDS011;67758;39.572;2.652;2023-05-14T06:21:47;5.60;;;1.10;;
68449;SDS011;67758;39.572;2.652;2023-05-14T06:24:12;6.22;;;0.90;;
68449;SDS011;67758;39.572;2.652;2023-05-14T06:26:38;4.70;;;1.07;;
68449;SDS011;67758;39.572;2.652;2023-05-14T06:29:03;4.55;;;0.98;;
68449;SDS011;67758;39.572;2.652;2023-05-14T06:31:29;5.20;;;0.97;;
68449;SDS011;67758;39.572;2.652;2023-05-14T06:33:55;3.25;;;0.60;;
68449;SDS011;67758;39.572;2.652;2023-05-14T06:36:20;5.37;;;0.80;;
68449;SDS011;67758;39.572;2.652;2023-05-14T06:38:46;4.33;;;0.93;;
68449;SDS011;67758;39.572;2.652;2023-05-14T06:41:12;5.45;;;1.05;;
68449;SDS011;67758;39.572;2.652;2023-05-14T06:43:37;4.60;;;1.10;;
68449;SDS011;67758;39.572;2.652;2023-05-14T06:46:03;5.53;;;1.07;;
68449;SDS011;67758;39.572;2.652;2023-05-14T06:48:28;5.95;;;1.10;;
68449;SDS011;67758;39.572;2.652;2023-05-14T06:50:54;4.07;;;1.10;;
68449;SDS011;67758;39.572;2.652;2023-05-14T06:53:20;4.43;;;0.90;;
68449;SDS011;67758;39.572;2.652;2023-05-14T06:55:46;5.93;;;0.70;;
68449;SDS011;67758;39.572;2.652;2023-05-14T06:58:12;3.95;;;0.80;;
68449;SDS011;67758;39.572;2.652;2023-05-14T07:00:38;4.10;;;0.60;;
68449;SDS011;67758;39.572;2.652;2023-05-14T07:03:04;3.87;;;0.60;;
68449;SDS011;67758;39.572;2.652;2023-05-14T07:05:30;4.57;;;0.70;;
68449;SDS011;67758;39.572;2.652;2023-05-14T07:07:56;3.47;;;0.68;;
68449;SDS011;67758;39.572;2.652;2023-05-14T07:10:22;4.40;;;0.57;;
68449;SDS011;67758;39.572;2.652;2023-05-14T07:12:48;5.53;;;0.80;;
68449;SDS011;67758;39.572;2.652;2023-05-14T07:15:13;4.80;;;0.80;;
68449;SDS011;67758;39.572;2.652;2023-05-14T07:17:39;5.87;;;0.90;;
68449;SDS011;67758;39.572;2.652;2023-05-14T07:20:05;5.57;;;1.30;;
68449;SDS011;67758;39.572;2.652;2023-05-14T07:22:31;5.47;;;1.23;;
68449;SDS011;67758;39.572;2.652;2023-05-14T07:24:59;5.88;;;1.15;;
68449;SDS011;67758;39.572;2.652;2023-05-14T07:27:25;6.30;;;1.17;;
68449;SDS011;67758;39.572;2.652;2023-05-14T07:29:51;4.50;;;0.80;;
68449;SDS011;67758;39.572;2.652;2023-05-14T07:32:16;5.53;;;1.20;;
68449;SDS011;67758;39.572;2.652;2023-05-14T07:34:42;6.23;;;1.33;;
68449;SDS011;67758;39.572;2.652;2023-05-14T07:37:07;5.93;;;1.33;;
68449;SDS011;67758;39.572;2.652;2023-05-14T07:39:33;6.30;;;1.50;;
68449;SDS011;67758;39.572;2.652;2023-05-14T07:41:59;6.97;;;1.50;;
68449;SDS011;67758;39.572;2.652;2023-05-14T07:44:25;4.45;;;1.20;;
68449;SDS011;67758;39.572;2.652;2023-05-14T07:46:51;4.57;;;1.00;;
68449;SDS011;67758;39.572;2.652;2023-05-14T07:49:16;7.43;;;1.23;;
68449;SDS011;67758;39.572;2.652;2023-05-14T07:51:42;5.40;;;1.37;;
68449;SDS011;67758;39.572;2.652;2023-05-14T07:54:07;7.28;;;1.52;;
68449;SDS011;67758;39.572;2.652;2023-05-14T07:56:33;6.50;;;1.27;;
68449;SDS011;67758;39.572;2.652;2023-05-14T07:58:59;5.30;;;1.20;;
68449;SDS011;67758;39.572;2.652;2023-05-14T08:01:24;5.57;;;1.30;;
68449;SDS011;67758;39.572;2.652;2023-05-14T08:03:50;5.43;;;1.10;;
68449;SDS011;67758;39.572;2.652;2023-05-14T08:06:16;4.68;;;1.00;;
68449;SDS011;67758;39.572;2.652;2023-05-14T08:08:42;5.80;;;1.00;;
68449;SDS011;67758;39.572;2.652;2023-05-14T08:11:07;4.17;;;0.90;;
68449;SDS011;67758;39.572;2.652;2023-05-14T08:13:33;4.55;;;0.88;;
68449;SDS011;67758;39.572;2.652;2023-05-14T08:15:59;23.73;;;1.60;;
68449;SDS011;67758;39.572;2.652;2023-05-14T08:18:25;5.13;;;0.80;;
68449;SDS011;67758;39.572;2.652;2023-05-14T08:20:50;5.53;;;0.80;;
68449;SDS011;67758;39.572;2.652;2023-05-14T08:23:17;8.85;;;1.00;;
68449;SDS011;67758;39.572;2.652;2023-05-14T08:25:42;5.43;;;0.70;;
68449;SDS011;67758;39.572;2.652;2023-05-14T08:28:08;4.85;;;0.90;;
68449;SDS011;67758;39.572;2.652;2023-05-14T08:30:33;5.00;;;0.70;;
68449;SDS011;67758;39.572;2.652;2023-05-14T08:32:59;4.73;;;0.90;;
68449;SDS011;67758;39.572;2.652;2023-05-14T08:35:27;4.93;;;0.65;;
68449;SDS011;67758;39.572;2.652;2023-05-14T08:37:53;4.43;;;0.88;;
68449;SDS011;67758;39.572;2.652;2023-05-14T08:40:21;4.07;;;0.73;;
68449;SDS011;67758;39.572;2.652;2023-05-14T08:42:47;4.75;;;0.52;;
68449;SDS011;67758;39.572;2.652;2023-05-14T08:45:17;3.10;;;0.60;;
68449;SDS011;67758;39.572;2.652;2023-05-14T08:47:48;4.63;;;0.60;;
68449;SDS011;67758;39.572;2.652;2023-05-14T08:50:20;3.83;;;0.93;;
68449;SDS011;67758;39.572;2.652;2023-05-14T08:52:46;2.90;;;0.60;;
68449;SDS011;67758;39.572;2.652;2023-05-14T08:55:12;3.97;;;0.65;;
68449;SDS011;67758;39.572;2.652;2023-05-14T08:57:38;4.67;;;0.70;;
68449;SDS011;67758;39.572;2.652;2023-05-14T09:00:04;3.72;;;0.65;;
68449;SDS011;67758;39.572;2.652;2023-05-14T09:02:35;5.80;;;0.80;;
68449;SDS011;67758;39.572;2.652;2023-05-14T09:05:03;4.38;;;0.65;;
68449;SDS011;67758;39.572;2.652;2023-05-14T09:07:29;6.43;;;1.73;;
68449;SDS011;67758;39.572;2.652;2023-05-14T09:09:55;3.93;;;0.90;;
68449;SDS011;67758;39.572;2.652;2023-05-14T09:12:20;5.40;;;0.88;;
68449;SDS011;67758;39.572;2.652;2023-05-14T09:14:47;3.50;;;0.73;;
68449;SDS011;67758;39.572;2.652;2023-05-14T09:17:14;3.95;;;0.70;;
68449;SDS011;67758;39.572;2.652;2023-05-14T09:19:40;4.10;;;0.70;;
68449;SDS011;67758;39.572;2.652;2023-05-14T09:22:08;4.65;;;0.75;;
68449;SDS011;67758;39.572;2.652;2023-05-14T09:24:35;4.90;;;0.83;;
68449;SDS011;67758;39.572;2.652;2023-05-14T09:27:03;3.88;;;0.60;;
68449;SDS011;67758;39.572;2.652;2023-05-14T09:29:29;3.40;;;0.70;;
68449;SDS011;67758;39.572;2.652;2023-05-14T09:31:56;4.10;;;0.60;;
68449;SDS011;67758;39.572;2.652;2023-05-14T09:36:49;2.83;;;0.60;;
68449;SDS011;67758;39.572;2.652;2023-05-14T09:39:18;4.78;;;1.00;;
68449;SDS011;67758;39.572;2.652;2023-05-14T09:41:44;3.88;;;0.60;;
68449;SDS011;67758;39.572;2.652;2023-05-14T09:44:10;3.60;;;0.60;;
68449;SDS011;67758;39.572;2.652;2023-05-14T09:46:35;3.30;;;0.53;;
68449;SDS011;67758;39.572;2.652;2023-05-14T09:49:01;2.38;;;0.50;;
68449;SDS011;67758;39.572;2.652;2023-05-14T09:51:28;2.47;;;0.40;;
68449;SDS011;67758;39.572;2.652;2023-05-14T09:53:58;4.35;;;0.50;;
68449;SDS011;67758;39.572;2.652;2023-05-14T09:56:24;3.03;;;0.45;;
68449;SDS011;67758;39.572;2.652;2023-05-14T09:58:50;4.70;;;0.60;;
68449;SDS011;67758;39.572;2.652;2023-05-14T10:01:16;3.88;;;0.80;;
68449;SDS011;67758;39.572;2.652;2023-05-14T10:03:44;3.47;;;0.43;;
68449;SDS011;67758;39.572;2.652;2023-05-14T10:06:10;3.88;;;0.73;;
68449;SDS011;67758;39.572;2.652;2023-05-14T10:08:46;4.82;;;1.17;;
68449;SDS011;67758;39.572;2.652;2023-05-14T10:11:17;3.47;;;0.70;;
68449;SDS011;67758;39.572;2.652;2023-05-14T10:14:12;4.28;;;0.47;;
68449;SDS011;67758;39.572;2.652;2023-05-14T10:16:45;3.40;;;0.43;;
68449;SDS011;67758;39.572;2.652;2023-05-14T10:19:14;3.50;;;0.70;;
68449;SDS011;67758;39.572;2.652;2023-05-14T10:21:43;2.10;;;0.40;;
68449;SDS011;67758;39.572;2.652;2023-05-14T10:24:12;2.80;;;0.43;;
68449;SDS011;67758;39.572;2.652;2023-05-14T10:26:39;2.65;;;0.50;;
68449;SDS011;67758;39.572;2.652;2023-05-14T10:29:06;4.90;;;0.63;;
68449;SDS011;67758;39.572;2.652;2023-05-14T10:31:47;2.50;;;0.50;;
68449;SDS011;67758;39.572;2.652;2023-05-14T10:37:10;3.60;;;0.63;;
68449;SDS011;67758;39.572;2.652;2023-05-14T10:42:11;4.60;;;1.07;;
68449;SDS011;67758;39.572;2.652;2023-05-14T10:44:40;3.63;;;1.00;;
68449;SDS011;67758;39.572;2.652;2023-05-14T10:47:11;5.03;;;1.45;;
68449;SDS011;67758;39.572;2.652;2023-05-14T10:49:37;3.15;;;1.05;;
68449;SDS011;67758;39.572;2.652;2023-05-14T10:52:06;5.80;;;1.70;;
68449;SDS011;67758;39.572;2.652;2023-05-14T10:54:34;4.20;;;1.77;;
68449;SDS011;67758;39.572;2.652;2023-05-14T10:57:00;3.80;;;1.30;;
68449;SDS011;67758;39.572;2.652;2023-05-14T10:59:26;5.03;;;1.77;;
68449;SDS011;67758;39.572;2.652;2023-05-14T11:01:52;4.10;;;1.60;;
68449;SDS011;67758;39.572;2.652;2023-05-14T11:04:18;4.10;;;1.95;;
68449;SDS011;67758;39.572;2.652;2023-05-14T11:06:47;5.35;;;2.50;;
68449;SDS011;67758;39.572;2.652;2023-05-14T11:09:13;5.45;;;2.15;;
68449;SDS011;67758;39.572;2.652;2023-05-14T11:11:41;4.13;;;2.15;;
68449;SDS011;67758;39.572;2.652;2023-05-14T11:14:08;6.97;;;2.42;;
68449;SDS011;67758;39.572;2.652;2023-05-14T11:16:34;4.65;;;2.00;;
68449;SDS011;67758;39.572;2.652;2023-05-14T11:19:00;5.97;;;1.77;;
68449;SDS011;67758;39.572;2.652;2023-05-14T11:21:28;3.67;;;1.03;;
68449;SDS011;67758;39.572;2.652;2023-05-14T11:23:54;4.55;;;1.40;;
68449;SDS011;67758;39.572;2.652;2023-05-14T11:26:20;5.65;;;2.38;;
68449;SDS011;67758;39.572;2.652;2023-05-14T11:28:47;5.72;;;1.88;;
68449;SDS011;67758;39.572;2.652;2023-05-14T11:31:13;4.43;;;1.67;;
68449;SDS011;67758;39.572;2.652;2023-05-14T11:33:39;4.30;;;1.53;;
68449;SDS011;67758;39.572;2.652;2023-05-14T11:36:05;6.07;;;2.15;;
68449;SDS011;67758;39.572;2.652;2023-05-14T11:38:30;4.10;;;1.80;;
68449;SDS011;67758;39.572;2.652;2023-05-14T11:40:57;17.75;;;10.18;;
68449;SDS011;67758;39.572;2.652;2023-05-14T11:43:24;5.78;;;3.63;;
68449;SDS011;67758;39.572;2.652;2023-05-14T11:45:53;3.78;;;1.67;;
68449;SDS011;67758;39.572;2.652;2023-05-14T11:48:20;4.20;;;2.20;;
68449;SDS011;67758;39.572;2.652;2023-05-14T11:50:49;4.68;;;2.00;;
68449;SDS011;67758;39.572;2.652;2023-05-14T11:53:27;3.80;;;1.73;;
68449;SDS011;67758;39.572;2.652;2023-05-14T11:55:54;4.80;;;2.50;;
68449;SDS011;67758;39.572;2.652;2023-05-14T11:58:21;5.90;;;2.67;;
68449;SDS011;67758;39.572;2.652;2023-05-14T12:00:51;5.53;;;2.00;;
68449;SDS011;67758;39.572;2.652;2023-05-14T12:03:19;5.70;;;3.20;;
68449;SDS011;67758;39.572;2.652;2023-05-14T12:06:00;5.18;;;2.47;;
68449;SDS011;67758;39.572;2.652;2023-05-14T12:08:30;5.57;;;2.35;;
68449;SDS011;67758;39.572;2.652;2023-05-14T12:10:57;3.70;;;1.80;;
68449;SDS011;67758;39.572;2.652;2023-05-14T12:13:33;5.72;;;2.00;;
68449;SDS011;67758;39.572;2.652;2023-05-14T12:16:00;4.15;;;2.00;;
68449;SDS011;67758;39.572;2.652;2023-05-14T12:18:28;5.68;;;2.00;;
68449;SDS011;67758;39.572;2.652;2023-05-14T12:20:55;4.38;;;1.80;;
68449;SDS011;67758;39.572;2.652;2023-05-14T12:23:26;5.95;;;2.47;;
68449;SDS011;67758;39.572;2.652;2023-05-14T12:25:53;5.15;;;2.63;;
68449;SDS011;67758;39.572;2.652;2023-05-14T12:28:19;6.23;;;2.00;;
68449;SDS011;67758;39.572;2.652;2023-05-14T12:30:45;4.43;;;1.50;;
68449;SDS011;67758;39.572;2.652;2023-05-14T12:33:11;5.32;;;1.50;;
68449;SDS011;67758;39.572;2.652;2023-05-14T12:35:38;5.18;;;1.33;;
68449;SDS011;67758;39.572;2.652;2023-05-14T12:38:04;4.55;;;1.30;;
68449;SDS011;67758;39.572;2.652;2023-05-14T12:40:30;4.22;;;0.75;;
68449;SDS011;67758;39.572;2.652;2023-05-14T12:42:55;4.40;;;1.10;;
68449;SDS011;67758;39.572;2.652;2023-05-14T12:45:21;4.53;;;0.97;;
68449;SDS011;67758;39.572;2.652;2023-05-14T12:47:47;5.65;;;0.90;;
68449;SDS011;67758;39.572;2.652;2023-05-14T12:50:12;5.77;;;0.90;;
68449;SDS011;67758;39.572;2.652;2023-05-14T12:52:38;4.32;;;0.73;;
68449;SDS011;67758;39.572;2.652;2023-05-14T12:55:04;5.17;;;0.77;;
68449;SDS011;67758;39.572;2.652;2023-05-14T12:57:30;4.40;;;0.80;;
68449;SDS011;67758;39.572;2.652;2023-05-14T12:59:56;3.60;;;0.70;;
68449;SDS011;67758;39.572;2.652;2023-05-14T13:02:22;5.10;;;1.00;;
68449;SDS011;67758;39.572;2.652;2023-05-14T13:04:47;7.45;;;1.00;;
68449;SDS011;67758;39.572;2.652;2023-05-14T13:07:13;13.93;;;1.10;;
68449;SDS011;67758;39.572;2.652;2023-05-14T13:09:38;9.10;;;2.00;;
68449;SDS011;67758;39.572;2.652;2023-05-14T13:12:04;8.13;;;1.98;;
68449;SDS011;67758;39.572;2.652;2023-05-14T13:14:30;8.82;;;1.58;;
68449;SDS011;67758;39.572;2.652;2023-05-14T13:16:56;6.83;;;1.23;;
68449;SDS011;67758;39.572;2.652;2023-05-14T13:19:21;11.73;;;2.80;;
68449;SDS011;67758;39.572;2.652;2023-05-14T13:21:47;17.48;;;5.80;;
68449;SDS011;67758;39.572;2.652;2023-05-14T13:24:13;14.87;;;2.57;;
68449;SDS011;67758;39.572;2.652;2023-05-14T13:26:39;12.15;;;2.20;;
68449;SDS011;67758;39.572;2.652;2023-05-14T13:29:04;16.27;;;1.48;;
68449;SDS011;67758;39.572;2.652;2023-05-14T13:31:30;13.73;;;1.60;;
68449;SDS011;67758;39.572;2.652;2023-05-14T13:33:56;11.77;;;1.10;;
68449;SDS011;67758;39.572;2.652;2023-05-14T13:36:23;10.65;;;1.30;;
68449;SDS011;67758;39.572;2.652;2023-05-14T13:38:49;6.17;;;1.40;;
68449;SDS011;67758;39.572;2.652;2023-05-14T13:41:14;5.57;;;1.17;;
68449;SDS011;67758;39.572;2.652;2023-05-14T13:43:40;4.23;;;0.80;;
68449;SDS011;67758;39.572;2.652;2023-05-14T13:46:06;3.07;;;0.60;;
68449;SDS011;67758;39.572;2.652;2023-05-14T13:48:31;3.53;;;0.80;;
68449;SDS011;67758;39.572;2.652;2023-05-14T13:50:57;3.35;;;0.65;;
68449;SDS011;67758;39.572;2.652;2023-05-14T13:53:24;3.80;;;0.90;;
68449;SDS011;67758;39.572;2.652;2023-05-14T13:55:50;5.72;;;0.90;;
68449;SDS011;67758;39.572;2.652;2023-05-14T13:58:23;3.38;;;0.50;;
68449;SDS011;67758;39.572;2.652;2023-05-14T14:00:49;3.90;;;0.70;;
68449;SDS011;67758;39.572;2.652;2023-05-14T14:03:16;4.40;;;0.70;;
68449;SDS011;67758;39.572;2.652;2023-05-14T14:05:41;4.20;;;0.70;;
68449;SDS011;67758;39.572;2.652;2023-05-14T14:08:07;3.20;;;0.50;;
68449;SDS011;67758;39.572;2.652;2023-05-14T14:10:32;4.20;;;0.85;;
68449;SDS011;67758;39.572;2.652;2023-05-14T14:12:58;2.80;;;0.60;;
68449;SDS011;67758;39.572;2.652;2023-05-14T14:15:24;3.65;;;0.90;;
68449;SDS011;67758;39.572;2.652;2023-05-14T14:17:49;2.77;;;0.60;;
68449;SDS011;67758;39.572;2.652;2023-05-14T14:20:15;3.03;;;0.60;;
68449;SDS011;67758;39.572;2.652;2023-05-14T14:22:41;2.83;;;0.60;;
68449;SDS011;67758;39.572;2.652;2023-05-14T14:25:08;4.47;;;0.90;;
68449;SDS011;67758;39.572;2.652;2023-05-14T14:27:35;4.18;;;0.90;;
68449;SDS011;67758;39.572;2.652;2023-05-14T14:30:04;4.90;;;0.70;;
68449;SDS011;67758;39.572;2.652;2023-05-14T14:32:31;4.05;;;1.20;;
68449;SDS011;67758;39.572;2.652;2023-05-14T14:34:57;4.20;;;0.70;;
68449;SDS011;67758;39.572;2.652;2023-05-14T14:37:22;3.60;;;0.70;;
68449;SDS011;67758;39.572;2.652;2023-05-14T14:39:48;2.57;;;0.83;;
68449;SDS011;67758;39.572;2.652;2023-05-14T14:42:13;4.45;;;1.10;;
68449;SDS011;67758;39.572;2.652;2023-05-14T14:44:39;4.37;;;1.50;;
68449;SDS011;67758;39.572;2.652;2023-05-14T14:47:05;3.53;;;1.00;;
68449;SDS011;67758;39.572;2.652;2023-05-14T14:49:31;4.93;;;0.93;;
68449;SDS011;67758;39.572;2.652;2023-05-14T14:51:57;4.03;;;1.17;;
68449;SDS011;67758;39.572;2.652;2023-05-14T14:54:22;3.93;;;1.20;;
68449;SDS011;67758;39.572;2.652;2023-05-14T14:56:48;4.07;;;1.30;;
68449;SDS011;67758;39.572;2.652;2023-05-14T14:59:16;7.50;;;2.00;;